Time;durP1;ratioP1;P1;durP2;ratioP2;P2;SDS_P1;SDS_P2;PMS_P1;PMS_P2;Temp;Humidity;BMP_temperature;BMP_pressure;BME280_temperature;BME280_humidity;BME280_pressure;Samples;Min_cycle;Max_cycle;Signal;HPM_P1;HPM_P2
2023/07/01 00:00:21;;;;;;;;;;;;;;;24.00;66.22;100354.56;7399242;19;1516;-53
2023/07/01 00:02:52;;;;;;;;;;;;;;;24.04;66.15;100344.25;7401753;19;1695;-53
2023/07/01 00:05:21;;;;;;;;;;;;;;;24.05;66.12;100356.72;7399669;19;1382;-53
2023/07/01 00:07:50;;;;;;;;;;;;;;;24.07;66.17;100345.72;7403269;19;1790;-53
2023/07/01 00:10:21;;;;;;;;;;;;;;;24.05;65.90;100348.59;7402276;19;1853;-52
2023/07/01 00:12:49;;;;;;;;;;;;;;;24.08;66.37;100352.84;7402030;19;1556;-52
2023/07/01 00:15:18;;;;;;;;;;;;;;;24.08;66.08;100345.56;7401285;19;1528;-52
2023/07/01 00:17:46;;;;;;;;;;;;;;;24.08;66.18;100344.72;7401566;19;1862;-53
2023/07/01 00:20:14;;;;;;;;;;;;;;;24.03;66.33;100337.13;7402415;19;1378;-53
2023/07/01 00:22:43;;;;;;;;;;;;;;;24.00;66.40;100337.50;7403010;19;966;-52
2023/07/01 00:25:11;;;;;;;;;;;;;;;24.04;66.36;100343.41;7402447;19;1117;-53
2023/07/01 00:27:42;;;;;;;;;;;;;;;24.06;66.11;100339.50;7401569;19;1478;-53
2023/07/01 00:30:11;;;;;;;;;;;;;;;24.04;66.25;100338.84;7400071;19;1849;-52
2023/07/01 00:32:39;;;;;;;;;;;;;;;24.04;66.08;100352.34;7400658;19;1526;-53
2023/07/01 00:35:08;;;;;;;;;;;;;;;24.03;66.19;100339.84;7401095;19;1813;-52
2023/07/01 00:37:36;;;;;;;;;;;;;;;24.02;66.23;100340.88;7401517;19;1787;-53
2023/07/01 00:40:06;;;;;;;;;;;;;;;24.04;65.96;100338.84;7400871;19;1854;-53
2023/07/01 00:42:34;;;;;;;;;;;;;;;24.04;66.01;100338.00;7399692;19;1319;-53
2023/07/01 00:45:05;;;;;;;;;;;;;;;24.05;66.10;100332.41;7399655;19;1477;-53
2023/07/01 00:47:34;;;;;;;;;;;;;;;24.07;66.13;100338.47;7402201;19;1706;-53
2023/07/01 00:50:02;;;;;;;;;;;;;;;24.03;66.06;100331.75;7398551;19;1896;-52
2023/07/01 00:52:30;;;;;;;;;;;;;;;24.04;66.28;100338.84;7401354;19;1031;-52
2023/07/01 00:54:59;;;;;;;;;;;;;;;24.02;66.37;100335.47;7400879;19;1924;-53
2023/07/01 00:57:27;;;;;;;;;;;;;;;24.02;66.17;100338.19;7396512;19;1890;-52
2023/07/01 00:59:55;;;;;;;;;;;;;;;24.06;65.99;100336.78;7400519;19;1406;-53
2023/07/01 01:02:29;;;;;;;;;;;;;;;24.04;66.10;100340.72;7401173;19;1098;-53
2023/07/01 01:05:02;;;;;;;;;;;;;;;24.05;65.94;100329.69;7399613;19;1047;-53
2023/07/01 01:07:32;;;;;;;;;;;;;;;24.05;66.12;100329.69;7400980;19;1591;-52
2023/07/01 01:10:05;;;;;;;;;;;;;;;24.03;66.29;100337.13;7400150;19;1825;-53
2023/07/01 01:12:34;;;;;;;;;;;;;;;24.03;66.01;100331.75;7399939;19;1853;-52
2023/07/01 01:15:04;;;;;;;;;;;;;;;24.09;66.15;100319.38;7400164;19;1831;-53
2023/07/01 01:17:36;;;;;;;;;;;;;;;24.04;66.19;100322.63;7399725;19;1323;-53
2023/07/01 01:20:12;;;;;;;;;;;;;;;24.04;66.22;100321.78;7400148;19;1699;-53
2023/07/01 01:22:46;;;;;;;;;;;;;;;24.01;66.10;100318.44;7400765;19;938;-52
2023/07/01 01:25:21;;;;;;;;;;;;;;;24.05;65.86;100313.50;7401272;19;994;-52
2023/07/01 01:27:52;;;;;;;;;;;;;;;24.07;66.16;100302.50;7399829;19;1845;-53
2023/07/01 01:30:22;;;;;;;;;;;;;;;24.01;66.13;100307.63;7396038;19;1850;-53
2023/07/01 01:32:51;;;;;;;;;;;;;;;24.03;65.89;100310.13;7398969;19;1387;-52
2023/07/01 01:35:19;;;;;;;;;;;;;;;23.99;66.21;100304.28;7399867;19;1472;-52
2023/07/01 01:37:49;;;;;;;;;;;;;;;24.03;66.08;100302.03;7400057;19;1125;-52
2023/07/01 01:40:20;;;;;;;;;;;;;;;24.04;66.12;100294.78;7400183;19;1019;-52
2023/07/01 01:42:49;;;;;;;;;;;;;;;24.02;66.05;100300.38;7398957;19;1783;-53
2023/07/01 01:45:22;;;;;;;;;;;;;;;24.07;65.95;100308.75;7398796;19;1595;-53
2023/07/01 01:47:52;;;;;;;;;;;;;;;24.04;66.05;100311.81;7398750;19;1862;-52
2023/07/01 01:50:22;;;;;;;;;;;;;;;23.99;66.20;100311.50;7399101;19;1843;-52
2023/07/01 01:52:51;;;;;;;;;;;;;;;24.01;66.04;100307.63;7398785;19;1755;-53
2023/07/01 01:55:20;;;;;;;;;;;;;;;24.06;66.20;100314.34;7399654;19;1093;-52
2023/07/01 01:57:49;;;;;;;;;;;;;;;24.05;66.29;100308.09;7397713;19;1525;-53
2023/07/01 02:00:20;;;;;;;;;;;;;;;24.02;66.21;100316.56;7395840;19;1874;-53
2023/07/01 02:02:48;;;;;;;;;;;;;;;24.02;66.04;100313.88;7396947;19;1793;-53
2023/07/01 02:05:17;;;;;;;;;;;;;;;24.05;65.93;100313.50;7396851;19;1390;-52
2023/07/01 02:07:45;;;;;;;;;;;;;;;24.04;65.84;100319.94;7399315;19;1029;-53
2023/07/01 02:10:14;;;;;;;;;;;;;;;24.04;66.12;100306.44;7398651;19;1849;-53
2023/07/01 02:12:43;;;;;;;;;;;;;;;24.04;65.96;100311.81;7398576;19;1604;-52
2023/07/01 02:15:11;;;;;;;;;;;;;;;24.08;65.85;100315.84;7397982;19;1470;-52
2023/07/01 02:17:42;;;;;;;;;;;;;;;24.04;65.99;100314.53;7397824;19;1452;-52
2023/07/01 02:20:11;;;;;;;;;;;;;;;24.01;66.04;100307.63;7398114;19;1489;-52
2023/07/01 02:22:40;;;;;;;;;;;;;;;24.06;66.07;100303.56;7398866;19;963;-52
2023/07/01 02:25:09;;;;;;;;;;;;;;;24.04;65.96;100325.34;7398165;19;1991;-52
2023/07/01 02:27:37;;;;;;;;;;;;;;;24.07;65.94;100313.31;7397766;19;1929;-52
2023/07/01 02:30:06;;;;;;;;;;;;;;;24.07;65.88;100316.84;7393964;19;2006;-53
2023/07/01 02:32:34;;;;;;;;;;;;;;;24.05;65.78;100310.78;7398007;19;1565;-52
2023/07/01 02:35:05;;;;;;;;;;;;;;;24.06;65.72;100317.88;7398909;19;1035;-52
2023/07/01 02:37:33;;;;;;;;;;;;;;;24.04;65.82;100322.63;7397601;19;1559;-53
2023/07/01 02:40:04;;;;;;;;;;;;;;;24.06;65.66;100304.38;7398256;19;1853;-53
2023/07/01 02:42:32;;;;;;;;;;;;;;;24.02;65.74;100313.88;7397500;19;1811;-53
2023/07/01 02:45:00;;;;;;;;;;;;;;;24.07;65.65;100316.03;7398154;19;1465;-52
2023/07/01 02:47:29;;;;;;;;;;;;;;;24.08;65.57;100315.00;7397044;19;1822;-53
2023/07/01 02:49:57;;;;;;;;;;;;;;;24.08;65.58;100317.72;7396811;19;1933;-53
2023/07/01 02:52:28;;;;;;;;;;;;;;;24.02;65.95;100325.50;7397186;19;1035;-52
2023/07/01 02:54:56;;;;;;;;;;;;;;;24.05;65.77;100321.59;7396995;19;1553;-53
2023/07/01 02:57:25;;;;;;;;;;;;;;;24.01;65.85;100322.97;7393403;19;1823;-53
2023/07/01 02:59:53;;;;;;;;;;;;;;;24.01;65.61;100313.03;7397248;19;1792;-52
2023/07/01 03:02:21;;;;;;;;;;;;;;;24.04;65.70;100303.72;7397659;19;947;-53
2023/07/01 03:04:49;;;;;;;;;;;;;;;24.05;65.84;100318.06;7395384;19;1951;-53
2023/07/01 03:07:18;;;;;;;;;;;;;;;24.09;65.96;100327.47;7396626;19;1921;-53
2023/07/01 03:09:49;;;;;;;;;;;;;;;24.05;65.94;100313.50;7396090;19;1540;-53
2023/07/01 03:12:17;;;;;;;;;;;;;;;24.02;65.61;100317.41;7395504;19;1851;-53
2023/07/01 03:14:45;;;;;;;;;;;;;;;24.03;65.94;100331.75;7401063;19;1477;-53
2023/07/01 03:17:14;;;;;;;;;;;;;;;24.03;65.71;100326.34;7403120;19;1726;-52
2023/07/01 03:19:43;;;;;;;;;;;;;;;24.01;65.79;100329.25;7403376;19;1370;-53
2023/07/01 03:22:11;;;;;;;;;;;;;;;24.03;65.71;100315.53;7403455;19;1077;-53
2023/07/01 03:24:39;;;;;;;;;;;;;;;24.05;65.88;100313.50;7403475;19;1524;-53
2023/07/01 03:27:10;;;;;;;;;;;;;;;24.03;65.96;100318.22;7403469;19;1427;-53
2023/07/01 03:29:39;;;;;;;;;;;;;;;24.01;65.74;100325.69;7404535;19;1154;-53
2023/07/01 03:32:08;;;;;;;;;;;;;;;24.03;65.93;100326.34;7401821;19;1931;-52
2023/07/01 03:34:37;;;;;;;;;;;;;;;24.02;65.86;100321.97;7403599;19;1858;-53
2023/07/01 03:37:06;;;;;;;;;;;;;;;23.97;65.75;100332.47;7403212;19;1774;-53
2023/07/01 03:39:34;;;;;;;;;;;;;;;24.06;65.60;100346.78;7403028;19;1323;-52
2023/07/01 03:42:03;;;;;;;;;;;;;;;23.94;65.97;100330.13;7402842;19;1723;-53
2023/07/01 03:44:33;;;;;;;;;;;;;;;24.01;65.79;100334.66;7402590;19;1382;-53
2023/07/01 03:47:02;;;;;;;;;;;;;;;24.00;65.77;100345.63;7402372;19;1404;-53
2023/07/01 03:49:30;;;;;;;;;;;;;;;23.95;65.87;100319.13;7401731;19;1363;-53
2023/07/01 03:51:58;;;;;;;;;;;;;;;23.96;65.89;100320.00;7402002;19;1852;-53
2023/07/01 03:54:26;;;;;;;;;;;;;;;23.88;66.15;100339.78;7401812;19;1885;-53
2023/07/01 03:56:55;;;;;;;;;;;;;;;23.81;66.38;100344.19;7403685;19;998;-53
2023/07/01 03:59:23;;;;;;;;;;;;;;;23.84;66.11;100333.06;7402019;19;1651;-53
2023/07/01 04:01:54;;;;;;;;;;;;;;;23.80;66.22;100340.66;7402490;19;1866;-53
2023/07/01 04:04:22;;;;;;;;;;;;;;;23.80;66.47;100320.94;7400313;19;1892;-53
2023/07/01 04:06:54;;;;;;;;;;;;;;;23.79;66.57;100341.66;7402307;19;1343;-52
2023/07/01 04:09:22;;;;;;;;;;;;;;;23.78;66.44;100339.16;7401472;19;1461;-52
2023/07/01 04:11:52;;;;;;;;;;;;;;;23.78;66.36;100337.31;7400432;19;1849;-52
2023/07/01 04:14:23;;;;;;;;;;;;;;;23.76;66.42;100320.41;7401271;19;1685;-53
2023/07/01 04:16:54;;;;;;;;;;;;;;;23.81;66.32;100328.88;7401205;19;1668;-52
2023/07/01 04:19:22;;;;;;;;;;;;;;;23.77;66.45;100342.84;7400677;19;1731;-52
2023/07/01 04:21:51;;;;;;;;;;;;;;;23.76;66.60;100319.59;7403035;19;1074;-52
2023/07/01 04:24:19;;;;;;;;;;;;;;;23.76;66.49;100335.78;7400283;19;1945;-52
2023/07/01 04:26:48;;;;;;;;;;;;;;;23.81;66.59;100331.56;7398826;19;1671;-52
2023/07/01 04:29:16;;;;;;;;;;;;;;;23.77;66.38;100327.50;7397099;19;1014;-53
2023/07/01 04:31:44;;;;;;;;;;;;;;;23.85;66.36;100331.19;7399595;19;1861;-52
2023/07/01 04:34:15;;;;;;;;;;;;;;;23.80;66.36;100320.94;7401567;19;1700;-52
2023/07/01 04:36:44;;;;;;;;;;;;;;;23.84;66.49;100332.22;7401081;19;1722;-53
2023/07/01 04:39:12;;;;;;;;;;;;;;;23.79;66.58;100325.47;7400236;19;1797;-52
2023/07/01 04:41:41;;;;;;;;;;;;;;;23.78;66.60;100337.31;7400496;19;1664;-53
2023/07/01 04:44:09;;;;;;;;;;;;;;;23.78;66.76;100328.38;7399319;19;1806;-52
2023/07/01 04:46:37;;;;;;;;;;;;;;;23.79;66.46;100330.88;7401282;19;1659;-53
2023/07/01 04:49:05;;;;;;;;;;;;;;;23.80;66.41;100332.56;7400386;19;1838;-53
2023/07/01 04:51:36;;;;;;;;;;;;;;;23.80;66.81;100312.84;7400459;19;1847;-52
2023/07/01 04:54:05;;;;;;;;;;;;;;;23.76;66.59;100317.72;7398987;19;1525;-53
2023/07/01 04:56:33;;;;;;;;;;;;;;;23.81;66.51;100301.88;7400482;19;1796;-52
2023/07/01 04:59:02;;;;;;;;;;;;;;;23.79;66.54;100311.97;7399716;19;1253;-52
2023/07/01 05:01:30;;;;;;;;;;;;;;;23.86;66.56;100324.78;7400279;19;1817;-52
2023/07/01 05:03:58;;;;;;;;;;;;;;;23.81;66.64;100312.66;7398547;19;1492;-52
2023/07/01 05:06:27;;;;;;;;;;;;;;;23.88;66.50;100322.75;7399694;19;1848;-53
2023/07/01 05:08:58;;;;;;;;;;;;;;;23.91;66.42;100311.56;7398871;19;1815;-54
2023/07/01 05:11:27;;;;;;;;;;;;;;;23.87;66.27;100310.25;7397645;19;1866;-52
2023/07/01 05:13:56;;;;;;;;;;;;;;;23.89;66.50;100329.81;7400260;19;1394;-52
2023/07/01 05:16:24;;;;;;;;;;;;;;;23.88;66.50;100325.44;7399780;19;1574;-52
2023/07/01 05:18:54;;;;;;;;;;;;;;;23.86;66.44;100324.78;7399226;19;1465;-53
2023/07/01 05:21:22;;;;;;;;;;;;;;;23.89;66.52;100319.00;7401172;19;1024;-52
2023/07/01 05:23:50;;;;;;;;;;;;;;;23.91;66.31;100330.47;7397736;19;1857;-52
2023/07/01 05:26:22;;;;;;;;;;;;;;;23.88;66.64;100328.16;7398667;19;1457;-53
2023/07/01 05:28:50;;;;;;;;;;;;;;;23.92;66.65;100324.06;7399250;19;1113;-52
2023/07/01 05:31:18;;;;;;;;;;;;;;;23.93;66.50;100326.56;7398056;19;1924;-53
2023/07/01 05:33:47;;;;;;;;;;;;;;;23.93;66.45;100318.47;7398888;19;1410;-52
2023/07/01 05:36:15;;;;;;;;;;;;;;;23.93;66.37;100313.06;7397109;19;1386;-53
2023/07/01 05:38:43;;;;;;;;;;;;;;;23.93;66.59;100318.47;7398928;19;1323;-52
2023/07/01 05:41:11;;;;;;;;;;;;;;;23.97;66.61;100316.25;7397107;19;1806;-53
2023/07/01 05:43:42;;;;;;;;;;;;;;;23.96;66.11;100326.22;7397056;19;1466;-52
2023/07/01 05:46:11;;;;;;;;;;;;;;;24.00;66.19;100319.44;7398963;19;1964;-52
2023/07/01 05:48:39;;;;;;;;;;;;;;;23.97;66.51;100327.06;7398039;19;1509;-53
2023/07/01 05:51:07;;;;;;;;;;;;;;;23.97;66.52;100300.91;7398475;19;1856;-53
2023/07/01 05:53:36;;;;;;;;;;;;;;;23.99;66.47;100314.22;7396622;19;1453;-54
2023/07/01 05:56:04;;;;;;;;;;;;;;;23.94;66.47;100309.34;7397969;19;1219;-55
2023/07/01 05:58:33;;;;;;;;;;;;;;;23.97;66.47;100305.44;7397644;19;1286;-55
2023/07/01 06:01:04;;;;;;;;;;;;;;;23.98;66.43;100307.16;7389732;19;1912;-55
2023/07/01 06:03:33;;;;;;;;;;;;;;;24.01;66.50;100301.38;7389262;19;1434;-55
2023/07/01 06:06:01;;;;;;;;;;;;;;;23.98;66.53;100304.44;7391826;19;1788;-55
2023/07/01 06:08:29;;;;;;;;;;;;;;;23.98;66.43;100302.56;7390899;19;1779;-55
2023/07/01 06:10:58;;;;;;;;;;;;;;;23.97;66.45;100294.66;7393554;19;1461;-55
2023/07/01 06:13:26;;;;;;;;;;;;;;;23.95;66.53;100294.00;7395369;19;1865;-55
2023/07/01 06:15:54;;;;;;;;;;;;;;;23.94;66.59;100305.81;7397902;19;1672;-55
2023/07/01 06:18:25;;;;;;;;;;;;;;;23.95;66.74;100294.81;7398345;19;1081;-55
2023/07/01 06:20:53;;;;;;;;;;;;;;;23.97;66.54;100294.66;7397045;19;1561;-55
2023/07/01 06:23:22;;;;;;;;;;;;;;;23.98;66.71;100296.34;7393899;19;2082;-55
2023/07/01 06:25:50;;;;;;;;;;;;;;;23.95;66.81;100299.38;7397220;19;1798;-55
2023/07/01 06:28:18;;;;;;;;;;;;;;;23.97;66.66;100284.72;7398647;19;950;-55
2023/07/01 06:30:47;;;;;;;;;;;;;;;23.95;66.67;100291.28;7391650;19;1537;-55
2023/07/01 06:33:15;;;;;;;;;;;;;;;23.95;66.90;100296.69;7395970;19;1903;-55
2023/07/01 06:35:46;;;;;;;;;;;;;;;24.02;66.52;100297.66;7397132;19;1675;-55
2023/07/01 06:38:14;;;;;;;;;;;;;;;24.03;66.57;100299.31;7397668;19;1426;-55
2023/07/01 06:40:43;;;;;;;;;;;;;;;24.06;66.54;100290.88;7396547;19;1672;-55
2023/07/01 06:43:11;;;;;;;;;;;;;;;24.05;66.63;100281.06;7397373;19;984;-55
2023/07/01 06:45:40;;;;;;;;;;;;;;;24.09;66.38;100292.38;7396826;19;1621;-56
2023/07/01 06:48:08;;;;;;;;;;;;;;;24.09;66.24;100286.97;7396949;19;1850;-55
2023/07/01 06:50:37;;;;;;;;;;;;;;;24.12;66.22;100292.84;7403402;19;1561;-55
2023/07/01 06:53:08;;;;;;;;;;;;;;;24.19;66.61;100298.38;7402211;19;1852;-55
2023/07/01 06:55:36;;;;;;;;;;;;;;;24.15;66.25;100292.50;7405395;19;1042;-55
2023/07/01 06:58:04;;;;;;;;;;;;;;;24.16;66.32;100280.66;7401595;19;1998;-56
2023/07/01 07:00:33;;;;;;;;;;;;;;;24.16;66.46;100283.38;7404612;19;1852;-58
2023/07/01 07:03:03;;;;;;;;;;;;;;;24.18;66.23;100288.59;7402515;19;1865;-55
2023/07/01 07:05:32;;;;;;;;;;;;;;;24.18;66.27;100294.81;7405306;19;1827;-55
2023/07/01 07:08:01;;;;;;;;;;;;;;;24.18;66.21;100291.28;7405438;19;977;-55
2023/07/01 07:10:32;;;;;;;;;;;;;;;24.15;66.37;100278.13;7403951;19;1516;-55
2023/07/01 07:13:00;;;;;;;;;;;;;;;24.16;66.44;100286.06;7401782;19;1865;-55
2023/07/01 07:15:28;;;;;;;;;;;;;;;24.14;66.18;100282.69;7403180;19;1771;-55
2023/07/01 07:17:57;;;;;;;;;;;;;;;24.15;66.43;100275.44;7403952;19;1788;-55
2023/07/01 07:20:25;;;;;;;;;;;;;;;24.14;66.70;100271.06;7402499;19;1823;-55
2023/07/01 07:22:53;;;;;;;;;;;;;;;24.15;66.59;100276.28;7402587;19;1407;-55
2023/07/01 07:25:22;;;;;;;;;;;;;;;24.15;66.51;100276.28;7404523;19;1012;-55
2023/07/01 07:27:53;;;;;;;;;;;;;;;24.17;66.43;100266.16;7402091;19;1604;-55
2023/07/01 07:30:21;;;;;;;;;;;;;;;24.17;66.51;100271.56;7402669;19;1422;-55
2023/07/01 07:32:49;;;;;;;;;;;;;;;24.16;66.46;100271.72;7401617;19;1841;-55
2023/07/01 07:35:18;;;;;;;;;;;;;;;24.15;66.52;100281.69;7404420;19;943;-55
2023/07/01 07:37:47;;;;;;;;;;;;;;;24.13;66.68;100272.06;7404444;19;946;-55
2023/07/01 07:40:15;;;;;;;;;;;;;;;24.14;66.63;100269.19;7403165;19;2084;-55
2023/07/01 07:42:44;;;;;;;;;;;;;;;24.19;66.50;100277.63;7401739;19;1811;-52
2023/07/01 07:45:19;;;;;;;;;;;;;;;24.17;66.23;100268.84;7402279;19;1821;-53
2023/07/01 07:47:47;;;;;;;;;;;;;;;24.17;66.41;100258.03;7402471;19;1430;-53
2023/07/01 07:50:15;;;;;;;;;;;;;;;24.20;66.46;100278.44;7402787;19;1676;-53
2023/07/01 07:52:44;;;;;;;;;;;;;;;24.21;66.37;100270.16;7400992;19;1865;-53
2023/07/01 07:55:12;;;;;;;;;;;;;;;24.21;66.58;100270.16;7403838;19;991;-53
2023/07/01 07:57:40;;;;;;;;;;;;;;;24.20;66.27;100273.03;7402083;19;1600;-52
2023/07/01 08:00:09;;;;;;;;;;;;;;;24.23;66.19;100267.25;7397486;19;1533;-52
2023/07/01 08:02:44;;;;;;;;;;;;;;;24.19;66.36;100272.22;7401425;19;1434;-52
2023/07/01 08:05:12;;;;;;;;;;;;;;;24.14;66.40;100255.69;7400328;19;1817;-52
2023/07/01 08:07:40;;;;;;;;;;;;;;;24.21;66.38;100259.34;7404008;19;1029;-53
2023/07/01 08:10:09;;;;;;;;;;;;;;;24.21;66.19;100259.34;7403006;19;1520;-52
2023/07/01 08:12:43;;;;;;;;;;;;;;;24.20;66.63;100263.06;7401344;19;1844;-53
2023/07/01 08:15:12;;;;;;;;;;;;;;;24.19;66.33;100247.88;7402270;19;1862;-53
2023/07/01 08:17:43;;;;;;;;;;;;;;;24.18;66.30;100238.09;7402796;19;1691;-53
2023/07/01 08:20:12;;;;;;;;;;;;;;;24.20;66.54;100263.06;7402606;19;1387;-53
2023/07/01 08:22:40;;;;;;;;;;;;;;;24.21;66.62;100261.19;7402232;19;1039;-52
2023/07/01 08:25:09;;;;;;;;;;;;;;;24.20;66.47;100256.81;7401888;19;1599;-52
2023/07/01 08:27:37;;;;;;;;;;;;;;;24.19;66.23;100261.41;7400933;19;1604;-53
2023/07/01 08:30:06;;;;;;;;;;;;;;;24.22;66.21;100258.31;7402006;19;1969;-55
2023/07/01 08:32:34;;;;;;;;;;;;;;;24.20;66.46;100246.03;7402277;19;1853;-55
2023/07/01 08:35:05;;;;;;;;;;;;;;;24.20;66.74;100254.13;7402481;19;1849;-55
2023/07/01 08:37:33;;;;;;;;;;;;;;;24.19;66.32;100250.59;7401020;19;1954;-55
2023/07/01 08:40:02;;;;;;;;;;;;;;;24.22;66.27;100249.38;7401427;19;1738;-55
2023/07/01 08:42:34;;;;;;;;;;;;;;;24.22;66.48;100250.22;7400025;19;1444;-55
2023/07/01 08:45:02;;;;;;;;;;;;;;;24.22;66.39;100238.56;7401141;19;1106;-56
2023/07/01 08:47:31;;;;;;;;;;;;;;;24.19;66.62;100231.69;7400879;19;1857;-55
2023/07/01 08:50:02;;;;;;;;;;;;;;;24.23;66.63;100245.63;7400459;19;1390;-55
2023/07/01 08:52:38;;;;;;;;;;;;;;;24.21;66.73;100245.84;7400160;19;1846;-55
2023/07/01 08:55:07;;;;;;;;;;;;;;;24.22;66.54;100247.50;7401153;19;1884;-55
2023/07/01 08:57:35;;;;;;;;;;;;;;;24.20;66.56;100222.53;7397454;19;2013;-55
2023/07/01 09:00:04;;;;;;;;;;;;;;;24.22;66.43;100233.16;7401957;19;1727;-55
2023/07/01 09:02:33;;;;;;;;;;;;;;;24.22;66.58;100238.56;7400279;19;1441;-55
2023/07/01 09:05:02;;;;;;;;;;;;;;;24.25;66.22;100234.66;7400047;19;1092;-55
2023/07/01 09:07:33;;;;;;;;;;;;;;;24.19;66.41;100212.78;7400911;19;1944;-55
2023/07/01 09:10:03;;;;;;;;;;;;;;;24.24;66.37;100227.59;7400611;19;1509;-55
2023/07/01 09:12:31;;;;;;;;;;;;;;;24.21;66.60;100215.25;7397390;19;1873;-55
2023/07/01 09:15:00;;;;;;;;;;;;;;;24.22;66.64;100222.38;7401208;19;1378;-55
2023/07/01 09:17:29;;;;;;;;;;;;;;;24.24;66.58;100223.00;7399605;19;1874;-55
2023/07/01 09:20:00;;;;;;;;;;;;;;;24.22;66.21;100212.38;7400108;19;1781;-55
2023/07/01 09:22:28;;;;;;;;;;;;;;;24.24;66.56;100214.09;7399760;19;1001;-55
2023/07/01 09:24:59;;;;;;;;;;;;;;;24.25;66.51;100221.16;7400033;19;1901;-55
2023/07/01 09:27:28;;;;;;;;;;;;;;;24.28;66.22;100220.78;7400097;19;1807;-55
2023/07/01 09:29:56;;;;;;;;;;;;;;;24.26;66.10;100212.03;7400003;19;1402;-55
2023/07/01 09:32:29;;;;;;;;;;;;;;;24.25;66.30;100215.75;7397713;19;1843;-55
2023/07/01 09:34:58;;;;;;;;;;;;;;;24.21;66.42;100209.88;7397800;19;1433;-55
2023/07/01 09:37:27;;;;;;;;;;;;;;;24.25;66.37;100202.22;7399225;19;1326;-55
2023/07/01 09:39:56;;;;;;;;;;;;;;;24.20;66.32;100203.63;7398987;19;1812;-55
2023/07/01 09:42:27;;;;;;;;;;;;;;;24.22;66.48;100206.97;7398001;19;1731;-55
2023/07/01 09:45:07;;;;;;;;;;;;;;;24.19;66.33;100210.06;7399618;19;1485;-55
2023/07/01 09:47:36;;;;;;;;;;;;;;;24.22;66.31;100212.38;7399673;19;1668;-55
2023/07/01 09:50:04;;;;;;;;;;;;;;;24.20;66.62;100197.38;7399973;19;1051;-55
2023/07/01 09:52:33;;;;;;;;;;;;;;;24.21;66.58;100194.50;7399514;19;1850;-55
2023/07/01 09:55:03;;;;;;;;;;;;;;;24.24;66.37;100181.66;7398524;19;1481;-55
2023/07/01 09:57:34;;;;;;;;;;;;;;;24.24;66.57;100197.88;7395205;19;1604;-55
2023/07/01 10:00:03;;;;;;;;;;;;;;;24.23;66.78;100205.13;7399430;19;1468;-55
2023/07/01 10:02:32;;;;;;;;;;;;;;;24.21;66.33;100183.72;7398770;19;1799;-55
2023/07/01 10:05:01;;;;;;;;;;;;;;;24.20;66.47;100170.38;7397780;19;1858;-55
2023/07/01 10:07:29;;;;;;;;;;;;;;;24.20;66.47;100165.81;7398123;19;1550;-55
2023/07/01 10:09:58;;;;;;;;;;;;;;;24.26;66.50;100182.31;7397922;19;1604;-55
2023/07/01 10:12:30;;;;;;;;;;;;;;;24.21;66.51;100170.19;7397721;19;1855;-55
2023/07/01 10:15:01;;;;;;;;;;;;;;;24.21;66.46;100164.78;7398919;19;1811;-55
2023/07/01 10:17:47;;;;;;;;;;;;;;;24.26;66.41;100160.69;7398823;19;1735;-55
2023/07/01 10:20:28;;;;;;;;;;;;;;;24.26;66.60;100158.81;7398089;19;1695;-55
2023/07/01 10:22:57;;;;;;;;;;;;;;;24.22;66.43;100152.13;7397437;19;1403;-55
2023/07/01 10:25:32;;;;;;;;;;;;;;;24.25;66.59;100161.72;7398837;19;1043;-55
2023/07/01 10:28:09;;;;;;;;;;;;;;;24.25;66.49;100157.13;7398512;19;1407;-55
2023/07/01 10:30:53;;;;;;;;;;;;;;;24.24;66.23;100154.63;7395122;19;1829;-55
2023/07/01 10:33:36;;;;;;;;;;;;;;;24.22;66.79;100141.31;7395511;19;1850;-55
2023/07/01 10:36:07;;;;;;;;;;;;;;;24.21;66.53;100151.28;7397757;19;1456;-56
2023/07/01 10:38:36;;;;;;;;;;;;;;;24.19;66.41;100155.19;7395540;19;1723;-55
2023/07/01 10:41:05;;;;;;;;;;;;;;;24.17;66.66;100159.91;7398475;19;1014;-56
2023/07/01 10:43:34;;;;;;;;;;;;;;;24.15;66.83;100168.22;7397643;19;1819;-55
2023/07/01 10:46:10;;;;;;;;;;;;;;;24.14;66.81;100158.44;7397966;19;1817;-55
2023/07/01 10:48:39;;;;;;;;;;;;;;;24.20;66.67;100165.81;7396735;19;1561;-55
2023/07/01 10:51:10;;;;;;;;;;;;;;;24.18;66.45;100150.81;7396756;19;1343;-55
2023/07/01 10:54:02;;;;;;;;;;;;;;;24.17;66.62;100149.97;7396419;19;1852;-52
2023/07/01 10:56:32;;;;;;;;;;;;;;;24.15;66.88;100143.06;7394558;19;2474;-52
2023/07/01 10:59:15;;;;;;;;;;;;;;;24.13;66.92;100132.47;7398809;19;1031;-53
2023/07/01 11:01:44;;;;;;;;;;;;;;;24.12;66.79;100138.88;7396516;19;1786;-53
2023/07/01 11:04:13;;;;;;;;;;;;;;;24.11;66.74;100134.47;7394893;19;1378;-53
2023/07/01 11:06:51;;;;;;;;;;;;;;;24.14;66.92;100128.72;7396505;19;1722;-52
2023/07/01 11:09:31;;;;;;;;;;;;;;;24.12;67.09;100114.56;7396547;19;1696;-52
2023/07/01 11:11:59;;;;;;;;;;;;;;;24.13;66.99;100120.78;7396688;19;1668;-52
2023/07/01 11:14:34;;;;;;;;;;;;;;;24.10;66.94;100110.38;7394225;19;1849;-53
2023/07/01 11:17:10;;;;;;;;;;;;;;;24.08;66.83;100097.06;7395814;19;1465;-52
2023/07/01 11:19:38;;;;;;;;;;;;;;;24.14;67.02;100101.72;7396119;19;1006;-52
2023/07/01 11:22:12;;;;;;;;;;;;;;;24.15;66.86;100105.25;7395945;19;1520;-53
2023/07/01 11:24:41;;;;;;;;;;;;;;;24.12;66.80;100098.34;7395419;19;1486;-53
2023/07/01 11:27:10;;;;;;;;;;;;;;;24.13;66.82;100100.06;7396892;19;1800;-53
2023/07/01 11:29:40;;;;;;;;;;;;;;;24.12;66.68;100084.84;7396096;19;1461;-53
2023/07/01 11:32:12;;;;;;;;;;;;;;;24.13;66.60;100096.50;7395699;19;1715;-53
2023/07/01 11:34:41;;;;;;;;;;;;;;;24.11;66.81;100080.47;7394650;19;1869;-53
2023/07/01 11:37:12;;;;;;;;;;;;;;;24.10;67.12;100075.25;7402201;19;1656;-52
2023/07/01 11:39:44;;;;;;;;;;;;;;;24.10;66.71;100062.59;7399162;19;1769;-52
2023/07/01 11:42:13;;;;;;;;;;;;;;;24.11;66.83;100069.66;7403652;19;1717;-52
2023/07/01 11:44:42;;;;;;;;;;;;;;;24.10;66.85;100067.16;7403022;19;1648;-52
2023/07/01 11:47:12;;;;;;;;;;;;;;;24.11;66.98;100052.63;7403153;19;1766;-52
2023/07/01 11:49:41;;;;;;;;;;;;;;;24.10;66.98;100053.66;7403296;19;1769;-52
2023/07/01 11:52:12;;;;;;;;;;;;;;;24.07;67.26;100044.03;7404211;19;1013;-52
2023/07/01 11:54:44;;;;;;;;;;;;;;;24.11;67.11;100053.44;7400131;19;1982;-53
2023/07/01 11:57:13;;;;;;;;;;;;;;;24.08;66.80;100040.34;7402948;19;1719;-53
2023/07/01 11:59:41;;;;;;;;;;;;;;;24.08;67.25;100031.41;7402641;19;1247;-53
2023/07/01 12:02:10;;;;;;;;;;;;;;;24.11;66.97;100058.84;7402698;19;1853;-52
2023/07/01 12:04:39;;;;;;;;;;;;;;;24.14;67.09;100058.50;7400122;19;1779;-53
2023/07/01 12:07:07;;;;;;;;;;;;;;;24.06;67.07;100036.97;7402112;19;1852;-53
2023/07/01 12:09:40;;;;;;;;;;;;;;;24.11;67.13;100034.53;7402211;19;1370;-53
2023/07/01 12:12:09;;;;;;;;;;;;;;;24.11;66.93;100034.53;7402089;19;1774;-53
2023/07/01 12:14:38;;;;;;;;;;;;;;;24.12;67.18;100051.59;7399209;19;1857;-52
2023/07/01 12:17:08;;;;;;;;;;;;;;;24.12;67.19;100028.13;7401523;19;1371;-53
2023/07/01 12:19:36;;;;;;;;;;;;;;;24.10;67.39;100030.19;7400441;19;1361;-53
2023/07/01 12:22:05;;;;;;;;;;;;;;;24.08;67.26;100043.03;7401942;19;947;-52
2023/07/01 12:24:35;;;;;;;;;;;;;;;24.12;67.16;100038.94;7401813;19;2104;-53
2023/07/01 12:27:06;;;;;;;;;;;;;;;24.09;67.12;100033.06;7401796;19;1695;-53
2023/07/01 12:29:35;;;;;;;;;;;;;;;24.09;67.25;100024.94;7401267;19;1813;-52
2023/07/01 12:32:04;;;;;;;;;;;;;;;24.03;67.44;100050.84;7401515;19;1402;-53
2023/07/01 12:34:32;;;;;;;;;;;;;;;24.06;67.41;100044.25;7399107;19;1837;-53
2023/07/01 12:37:00;;;;;;;;;;;;;;;24.09;67.32;100033.06;7400885;19;1723;-53
2023/07/01 12:39:29;;;;;;;;;;;;;;;24.09;67.34;100033.88;7401143;19;1412;-53
2023/07/01 12:41:59;;;;;;;;;;;;;;;24.11;67.17;100026.44;7401468;19;1680;-53
2023/07/01 12:44:30;;;;;;;;;;;;;;;24.08;67.13;100024.13;7400784;19;1386;-52
2023/07/01 12:46:58;;;;;;;;;;;;;;;24.13;66.99;100026.25;7398491;19;1398;-53
2023/07/01 12:49:27;;;;;;;;;;;;;;;24.12;67.37;100025.41;7402013;19;1820;-53
2023/07/01 12:51:56;;;;;;;;;;;;;;;24.10;67.29;100030.19;7401994;19;1016;-53
2023/07/01 12:54:24;;;;;;;;;;;;;;;24.12;66.98;100021.91;7398895;19;1850;-53
2023/07/01 12:56:53;;;;;;;;;;;;;;;24.10;67.14;100022.06;7401255;19;982;-52
2023/07/01 12:59:21;;;;;;;;;;;;;;;24.10;67.15;100022.06;7400538;19;1509;-53